sensor_id;sensor_type;location;lat;lon;timestamp;P1;durP1;ratioP1;P2;durP2;ratioP2
9234;SDS011;4652;42.716;23.218;2023-03-14T08:08:10;19.10;;;17.23;;
9234;SDS011;4652;42.716;23.218;2023-03-14T08:14:52;19.47;;;16.47;;
9234;SDS011;4652;42.716;23.218;2023-03-14T08:21:34;19.90;;;16.53;;
9234;SDS011;4652;42.716;23.218;2023-03-14T08:28:18;21.87;;;17.30;;
9234;SDS011;4652;42.716;23.218;2023-03-14T08:35:00;27.47;;;19.10;;
9234;SDS011;4652;42.716;23.218;2023-03-14T08:41:42;22.53;;;17.73;;
9234;SDS011;4652;42.716;23.218;2023-03-14T08:48:26;31.03;;;23.93;;
9234;SDS011;4652;42.716;23.218;2023-03-14T08:55:09;33.57;;;23.30;;
9234;SDS011;4652;42.716;23.218;2023-03-14T09:01:52;27.30;;;20.37;;
9234;SDS011;4652;42.716;23.218;2023-03-14T09:08:36;25.93;;;17.03;;
9234;SDS011;4652;42.716;23.218;2023-03-14T09:15:18;22.20;;;16.17;;
9234;SDS011;4652;42.716;23.218;2023-03-14T09:22:00;19.60;;;14.60;;
9234;SDS011;4652;42.716;23.218;2023-03-14T09:28:44;18.00;;;13.43;;
9234;SDS011;4652;42.716;23.218;2023-03-14T09:35:26;12.77;;;9.00;;
9234;SDS011;4652;42.716;23.218;2023-03-14T09:42:11;14.00;;;10.50;;
9234;SDS011;4652;42.716;23.218;2023-03-14T09:48:58;13.53;;;9.03;;
9234;SDS011;4652;42.716;23.218;2023-03-14T09:55:41;13.07;;;8.83;;
9234;SDS011;4652;42.716;23.218;2023-03-14T10:02:24;22.60;;;14.50;;
9234;SDS011;4652;42.716;23.218;2023-03-14T10:09:12;11.13;;;8.07;;
9234;SDS011;4652;42.716;23.218;2023-03-14T10:16:05;9.63;;;7.07;;
9234;SDS011;4652;42.716;23.218;2023-03-14T10:22:48;9.70;;;7.90;;
9234;SDS011;4652;42.716;23.218;2023-03-14T10:29:34;10.13;;;8.10;;
9234;SDS011;4652;42.716;23.218;2023-03-14T10:36:32;8.50;;;7.20;;
9234;SDS011;4652;42.716;23.218;2023-03-14T10:43:16;8.70;;;7.53;;
9234;SDS011;4652;42.716;23.218;2023-03-14T10:57:06;8.90;;;7.33;;
9234;SDS011;4652;42.716;23.218;2023-03-14T11:03:49;9.90;;;6.93;;
9234;SDS011;4652;42.716;23.218;2023-03-14T11:10:38;8.20;;;6.67;;
9234;SDS011;4652;42.716;23.218;2023-03-14T11:17:24;7.43;;;6.70;;
9234;SDS011;4652;42.716;23.218;2023-03-14T11:24:15;7.73;;;6.20;;
9234;SDS011;4652;42.716;23.218;2023-03-14T11:31:19;10.80;;;7.03;;
9234;SDS011;4652;42.716;23.218;2023-03-14T11:38:11;24.40;;;8.27;;
9234;SDS011;4652;42.716;23.218;2023-03-14T11:44:56;10.67;;;7.73;;
9234;SDS011;4652;42.716;23.218;2023-03-14T11:51:42;9.47;;;7.40;;
9234;SDS011;4652;42.716;23.218;2023-03-14T11:58:29;12.00;;;7.80;;
9234;SDS011;4652;42.716;23.218;2023-03-14T12:05:25;7.80;;;6.50;;
9234;SDS011;4652;42.716;23.218;2023-03-14T12:12:29;6.30;;;5.70;;
9234;SDS011;4652;42.716;23.218;2023-03-14T12:19:14;7.33;;;6.13;;
9234;SDS011;4652;42.716;23.218;2023-03-14T12:26:17;10.40;;;6.03;;
9234;SDS011;4652;42.716;23.218;2023-03-14T12:33:12;7.40;;;5.57;;
9234;SDS011;4652;42.716;23.218;2023-03-14T12:40:13;6.43;;;5.17;;
9234;SDS011;4652;42.716;23.218;2023-03-14T12:47:02;5.07;;;4.57;;
9234;SDS011;4652;42.716;23.218;2023-03-14T12:54:17;5.87;;;4.37;;
9234;SDS011;4652;42.716;23.218;2023-03-14T13:01:12;5.77;;;4.43;;
9234;SDS011;4652;42.716;23.218;2023-03-14T13:08:05;4.23;;;3.83;;
9234;SDS011;4652;42.716;23.218;2023-03-14T13:14:52;5.07;;;3.90;;
9234;SDS011;4652;42.716;23.218;2023-03-14T13:21:34;6.57;;;3.60;;
9234;SDS011;4652;42.716;23.218;2023-03-14T13:28:18;4.57;;;3.70;;
9234;SDS011;4652;42.716;23.218;2023-03-14T13:35:02;5.73;;;3.47;;
9234;SDS011;4652;42.716;23.218;2023-03-14T13:41:57;9.17;;;6.63;;
9234;SDS011;4652;42.716;23.218;2023-03-14T13:48:43;4.40;;;3.60;;
9234;SDS011;4652;42.716;23.218;2023-03-14T15:11:58;5.43;;;4.13;;
9234;SDS011;4652;42.716;23.218;2023-03-14T15:18:41;12.73;;;8.93;;
9234;SDS011;4652;42.716;23.218;2023-03-14T15:25:23;7.23;;;4.37;;
9234;SDS011;4652;42.716;23.218;2023-03-14T15:32:08;25.17;;;11.57;;
9234;SDS011;4652;42.716;23.218;2023-03-14T15:38:52;5.90;;;3.03;;
9234;SDS011;4652;42.716;23.218;2023-03-14T15:45:36;3.90;;;3.43;;
9234;SDS011;4652;42.716;23.218;2023-03-14T15:52:19;4.10;;;2.40;;
9234;SDS011;4652;42.716;23.218;2023-03-14T15:59:01;5.03;;;2.63;;
9234;SDS011;4652;42.716;23.218;2023-03-14T16:05:43;6.23;;;3.00;;
9234;SDS011;4652;42.716;23.218;2023-03-14T16:12:27;5.87;;;3.67;;
9234;SDS011;4652;42.716;23.218;2023-03-14T16:19:09;9.57;;;6.53;;
9234;SDS011;4652;42.716;23.218;2023-03-14T16:25:51;17.77;;;9.70;;
9234;SDS011;4652;42.716;23.218;2023-03-14T16:32:34;7.70;;;5.20;;
9234;SDS011;4652;42.716;23.218;2023-03-14T16:39:17;6.47;;;4.87;;
9234;SDS011;4652;42.716;23.218;2023-03-14T16:46:00;6.37;;;4.30;;
9234;SDS011;4652;42.716;23.218;2023-03-14T16:52:43;8.40;;;4.90;;
9234;SDS011;4652;42.716;23.218;2023-03-14T16:59:28;6.63;;;5.07;;
9234;SDS011;4652;42.716;23.218;2023-03-14T17:06:11;6.40;;;5.00;;
9234;SDS011;4652;42.716;23.218;2023-03-14T17:12:56;8.23;;;5.47;;
9234;SDS011;4652;42.716;23.218;2023-03-14T17:19:38;8.47;;;5.70;;
9234;SDS011;4652;42.716;23.218;2023-03-14T17:26:20;7.93;;;5.70;;
9234;SDS011;4652;42.716;23.218;2023-03-14T17:33:04;8.47;;;6.20;;
9234;SDS011;4652;42.716;23.218;2023-03-14T17:39:46;11.43;;;6.20;;
9234;SDS011;4652;42.716;23.218;2023-03-14T17:46:28;9.40;;;6.67;;
9234;SDS011;4652;42.716;23.218;2023-03-14T17:53:11;11.07;;;6.53;;
9234;SDS011;4652;42.716;23.218;2023-03-14T17:59:53;7.33;;;5.73;;
9234;SDS011;4652;42.716;23.218;2023-03-14T18:06:35;8.80;;;6.70;;
9234;SDS011;4652;42.716;23.218;2023-03-14T18:13:19;11.13;;;5.67;;
9234;SDS011;4652;42.716;23.218;2023-03-14T18:20:01;9.20;;;6.83;;
9234;SDS011;4652;42.716;23.218;2023-03-14T18:26:48;12.87;;;7.13;;
9234;SDS011;4652;42.716;23.218;2023-03-14T18:33:31;10.90;;;7.07;;
9234;SDS011;4652;42.716;23.218;2023-03-14T18:40:17;11.03;;;6.70;;
9234;SDS011;4652;42.716;23.218;2023-03-14T18:46:59;8.90;;;6.50;;
9234;SDS011;4652;42.716;23.218;2023-03-14T18:53:43;7.53;;;6.00;;
9234;SDS011;4652;42.716;23.218;2023-03-14T19:00:26;8.63;;;6.60;;
9234;SDS011;4652;42.716;23.218;2023-03-14T19:07:08;9.60;;;5.70;;
9234;SDS011;4652;42.716;23.218;2023-03-14T19:13:54;7.10;;;5.30;;
9234;SDS011;4652;42.716;23.218;2023-03-14T19:20:37;7.23;;;5.67;;
9234;SDS011;4652;42.716;23.218;2023-03-14T19:27:20;6.73;;;5.60;;
9234;SDS011;4652;42.716;23.218;2023-03-14T19:34:04;8.77;;;5.20;;
9234;SDS011;4652;42.716;23.218;2023-03-14T19:40:46;7.93;;;6.07;;
9234;SDS011;4652;42.716;23.218;2023-03-14T19:47:29;8.87;;;6.67;;
9234;SDS011;4652;42.716;23.218;2023-03-14T19:54:13;11.50;;;6.80;;
9234;SDS011;4652;42.716;23.218;2023-03-14T20:08:13;13.50;;;8.10;;
9234;SDS011;4652;42.716;23.218;2023-03-14T20:14:55;14.33;;;10.13;;
9234;SDS011;4652;42.716;23.218;2023-03-14T20:21:37;18.00;;;10.43;;
9234;SDS011;4652;42.716;23.218;2023-03-14T20:28:20;16.27;;;11.10;;
9234;SDS011;4652;42.716;23.218;2023-03-14T20:35:03;19.23;;;12.87;;
9234;SDS011;4652;42.716;23.218;2023-03-14T20:41:45;19.17;;;13.77;;
9234;SDS011;4652;42.716;23.218;2023-03-14T20:48:29;24.87;;;17.87;;
9234;SDS011;4652;42.716;23.218;2023-03-14T20:55:12;23.70;;;15.93;;
9234;SDS011;4652;42.716;23.218;2023-03-14T21:01:54;18.80;;;13.60;;
9234;SDS011;4652;42.716;23.218;2023-03-14T21:08:38;18.77;;;13.03;;
9234;SDS011;4652;42.716;23.218;2023-03-14T21:15:21;20.90;;;12.83;;
9234;SDS011;4652;42.716;23.218;2023-03-14T21:22:04;25.60;;;15.80;;
9234;SDS011;4652;42.716;23.218;2023-03-14T21:28:48;22.90;;;15.03;;
9234;SDS011;4652;42.716;23.218;2023-03-14T21:35:29;25.83;;;15.17;;
9234;SDS011;4652;42.716;23.218;2023-03-14T21:42:12;20.90;;;13.00;;
9234;SDS011;4652;42.716;23.218;2023-03-14T21:48:55;19.27;;;13.20;;
9234;SDS011;4652;42.716;23.218;2023-03-14T21:55:39;17.70;;;12.27;;
9234;SDS011;4652;42.716;23.218;2023-03-14T22:02:22;20.27;;;12.53;;
9234;SDS011;4652;42.716;23.218;2023-03-14T22:09:05;19.00;;;12.03;;
9234;SDS011;4652;42.716;23.218;2023-03-14T22:15:48;17.27;;;11.60;;
9234;SDS011;4652;42.716;23.218;2023-03-14T22:22:31;16.70;;;11.67;;
9234;SDS011;4652;42.716;23.218;2023-03-14T22:29:15;13.30;;;11.27;;
9234;SDS011;4652;42.716;23.218;2023-03-14T22:35:57;18.80;;;10.77;;
9234;SDS011;4652;42.716;23.218;2023-03-14T22:42:39;12.10;;;9.63;;
9234;SDS011;4652;42.716;23.218;2023-03-14T22:49:23;14.40;;;9.90;;
9234;SDS011;4652;42.716;23.218;2023-03-14T22:56:05;15.37;;;10.30;;
9234;SDS011;4652;42.716;23.218;2023-03-14T23:02:48;13.00;;;9.60;;
9234;SDS011;4652;42.716;23.218;2023-03-14T23:09:31;11.70;;;9.23;;
9234;SDS011;4652;42.716;23.218;2023-03-14T23:16:14;12.40;;;9.33;;
9234;SDS011;4652;42.716;23.218;2023-03-14T23:22:55;18.40;;;12.20;;
9234;SDS011;4652;42.716;23.218;2023-03-14T23:29:39;18.57;;;12.83;;
9234;SDS011;4652;42.716;23.218;2023-03-14T23:36:21;26.40;;;15.43;;
9234;SDS011;4652;42.716;23.218;2023-03-14T23:43:03;18.73;;;13.03;;
9234;SDS011;4652;42.716;23.218;2023-03-14T23:49:46;21.43;;;13.80;;
